createdAt,value
2023-05-25T00:02:04.757Z,52.69
2023-05-25T00:04:37.135Z,52.62
2023-05-25T00:07:05.481Z,52.73
2023-05-25T00:09:33.655Z,52.81
2023-05-25T00:12:02.045Z,53.02
2023-05-25T00:14:31.278Z,53.10
2023-05-25T00:17:04.257Z,53.15
2023-05-25T00:19:34.102Z,53.16
2023-05-25T00:22:03.143Z,53.32
2023-05-25T00:24:31.693Z,53.24
2023-05-25T00:26:59.998Z,53.59
2023-05-25T00:29:28.308Z,53.76
2023-05-25T00:31:56.801Z,53.66
2023-05-25T00:34:26.193Z,53.66
2023-05-25T00:36:54.874Z,53.94
2023-05-25T00:39:23.388Z,53.99
2023-05-25T00:41:51.772Z,54.14
2023-05-25T00:44:22.136Z,54.25
2023-05-25T00:46:52.938Z,54.42
2023-05-25T00:49:25.500Z,54.62
2023-05-25T00:51:54.272Z,54.53
2023-05-25T00:54:22.696Z,54.67
2023-05-25T00:56:53.541Z,54.72
2023-05-25T00:59:35.848Z,54.83
2023-05-25T01:02:11.966Z,54.90
2023-05-25T01:04:54.324Z,55.07
2023-05-25T01:07:25.407Z,55.06
2023-05-25T01:09:59.094Z,55.30
2023-05-25T01:12:29.751Z,55.37
2023-05-25T01:15:00.145Z,55.46
2023-05-25T01:17:29.263Z,55.50
2023-05-25T01:20:09.570Z,55.63
2023-05-25T01:22:47.934Z,55.64
2023-05-25T01:25:24.048Z,55.84
2023-05-25T01:27:58.082Z,55.72
2023-05-25T01:30:27.485Z,55.93
2023-05-25T01:32:56.601Z,56.02
2023-05-25T01:35:25.564Z,56.05
2023-05-25T01:37:54.123Z,56.19
2023-05-25T01:40:22.342Z,56.23
2023-05-25T01:42:50.540Z,56.42
2023-05-25T01:45:19.065Z,56.46
2023-05-25T01:48:04.106Z,56.55
2023-05-25T01:51:08.079Z,56.70
2023-05-25T01:53:40.383Z,56.82
2023-05-25T01:56:11.749Z,56.96
2023-05-25T01:58:45.050Z,57.04
2023-05-25T02:01:15.866Z,57.08
2023-05-25T02:03:46.976Z,57.27
2023-05-25T02:06:16.713Z,57.25
2023-05-25T02:08:45.877Z,57.24
2023-05-25T02:11:14.995Z,57.50
2023-05-25T02:13:43.240Z,57.62
2023-05-25T02:16:11.484Z,57.56
2023-05-25T02:18:46.105Z,57.64
2023-05-25T02:21:14.300Z,57.77
2023-05-25T02:23:43.691Z,57.71
2023-05-25T02:26:12.004Z,57.79
2023-05-25T02:28:40.370Z,57.86
2023-05-25T02:31:08.676Z,57.87
2023-05-25T02:33:37.269Z,57.98
2023-05-25T02:36:06.054Z,58.03
2023-05-25T02:38:34.242Z,58.11
2023-05-25T02:41:02.445Z,58.16
2023-05-25T02:43:30.858Z,58.15
2023-05-25T02:45:59.041Z,58.16
2023-05-25T02:48:27.438Z,58.25
2023-05-25T02:50:55.890Z,58.38
2023-05-25T02:53:24.196Z,58.36
2023-05-25T02:55:52.934Z,58.43
2023-05-25T02:58:22.612Z,58.56
2023-05-25T03:01:18.413Z,58.59
2023-05-25T03:03:54.088Z,58.60
2023-05-25T03:06:26.475Z,58.62
2023-05-25T03:08:59.769Z,58.69
2023-05-25T03:11:28.663Z,58.73
2023-05-25T03:14:00.111Z,58.68
2023-05-25T03:16:29.161Z,58.82
2023-05-25T03:18:57.506Z,58.66
2023-05-25T03:21:25.866Z,58.72
2023-05-25T03:23:55.295Z,58.63
2023-05-25T03:26:26.120Z,58.80
2023-05-25T03:28:54.817Z,58.84
2023-05-25T03:31:23.683Z,58.83
2023-05-25T03:33:52.046Z,59.05
2023-05-25T03:36:22.398Z,59.01
2023-05-25T03:38:51.166Z,59.00
2023-05-25T03:41:20.140Z,59.14
2023-05-25T03:43:48.425Z,59.14
2023-05-25T03:46:16.831Z,59.24
2023-05-25T03:48:45.261Z,59.34
2023-05-25T03:51:13.509Z,59.26
2023-05-25T03:53:41.717Z,59.33
2023-05-25T03:56:10.071Z,59.28
2023-05-25T03:58:38.992Z,59.18
2023-05-25T04:01:09.776Z,59.28
2023-05-25T04:03:38.431Z,59.29
2023-05-25T04:06:07.098Z,59.41
2023-05-25T04:08:35.348Z,59.33
2023-05-25T04:11:03.567Z,59.24
2023-05-25T04:13:35.901Z,59.28
2023-05-25T04:16:05.051Z,59.40
2023-05-25T04:18:34.229Z,59.37
2023-05-25T04:21:02.436Z,59.45
2023-05-25T04:23:31.311Z,59.48
2023-05-25T04:26:00.415Z,59.42
2023-05-25T04:28:29.170Z,59.53
2023-05-25T04:31:02.646Z,59.61
2023-05-25T04:34:03.916Z,59.57
2023-05-25T04:36:43.377Z,59.60
2023-05-25T04:39:13.053Z,59.65
2023-05-25T04:41:46.806Z,59.68
2023-05-25T04:44:15.153Z,59.71
2023-05-25T04:46:47.631Z,59.70
2023-05-25T04:49:26.306Z,59.73
2023-05-25T04:51:54.893Z,59.87
2023-05-25T04:54:23.827Z,59.78
2023-05-25T04:56:52.145Z,59.84
2023-05-25T04:59:21.145Z,59.99
2023-05-25T05:01:49.437Z,59.98
2023-05-25T05:04:18.809Z,60.03
2023-05-25T05:06:48.735Z,60.15
2023-05-25T05:09:21.728Z,60.07
2023-05-25T05:11:50.955Z,60.21
2023-05-25T05:14:20.541Z,60.33
2023-05-25T05:16:49.205Z,60.37
2023-05-25T05:19:17.488Z,60.40
2023-05-25T05:21:46.237Z,60.24
2023-05-25T05:24:14.954Z,60.01
2023-05-25T05:26:56.280Z,60.13
2023-05-25T05:29:35.276Z,60.27
2023-05-25T05:32:04.217Z,60.20
2023-05-25T05:34:33.652Z,60.14
2023-05-25T05:37:06.869Z,60.14
2023-05-25T05:39:35.071Z,60.11
2023-05-25T05:42:03.675Z,60.19
2023-05-25T05:44:32.424Z,60.25
2023-05-25T05:47:01.364Z,60.22
2023-05-25T05:49:31.713Z,60.04
2023-05-25T05:52:03.601Z,60.04
2023-05-25T05:54:32.202Z,60.11
2023-05-25T05:57:07.170Z,59.92
2023-05-25T05:59:35.511Z,59.94
2023-05-25T06:02:04.573Z,59.83
2023-05-25T06:04:33.032Z,59.74
2023-05-25T06:07:01.262Z,59.69
2023-05-25T06:09:29.680Z,59.82
2023-05-25T06:12:01.734Z,59.93
2023-05-25T06:14:30.443Z,59.64
2023-05-25T06:17:01.746Z,59.56
2023-05-25T06:19:30.544Z,59.50
2023-05-25T06:21:58.757Z,59.30
2023-05-25T06:24:26.910Z,59.31
2023-05-25T06:26:57.014Z,59.36
2023-05-25T06:29:25.253Z,59.08
2023-05-25T06:31:53.452Z,59.21
2023-05-25T06:34:21.650Z,59.22
2023-05-25T06:36:53.058Z,59.27
2023-05-25T06:39:21.556Z,58.77
2023-05-25T06:41:51.190Z,58.86
2023-05-25T06:44:27.889Z,58.89
2023-05-25T06:46:56.122Z,58.71
2023-05-25T06:49:24.346Z,58.51
2023-05-25T06:51:52.621Z,58.53
2023-05-25T06:54:20.844Z,58.40
2023-05-25T06:56:49.083Z,58.45
2023-05-25T06:59:18.530Z,58.40
2023-05-25T07:01:47.631Z,58.15
2023-05-25T07:04:16.142Z,57.95
2023-05-25T07:06:44.349Z,58.07
2023-05-25T07:09:12.968Z,58.04
2023-05-25T07:11:41.126Z,58.06
2023-05-25T07:14:09.252Z,58.10
2023-05-25T07:16:40.821Z,58.16
2023-05-25T07:19:09.369Z,58.05
2023-05-25T07:21:38.215Z,57.90
2023-05-25T07:24:06.606Z,57.74
2023-05-25T07:26:36.432Z,57.54
2023-05-25T07:29:04.666Z,57.71
2023-05-25T07:31:32.824Z,57.41
2023-05-25T07:34:01.221Z,57.34
2023-05-25T07:36:29.334Z,57.49
2023-05-25T07:38:58.482Z,57.30
2023-05-25T07:41:27.007Z,57.41
2023-05-25T07:43:55.280Z,57.17
2023-05-25T07:46:25.404Z,57.43
2023-05-25T07:48:54.808Z,57.49
2023-05-25T07:51:27.183Z,57.29
2023-05-25T07:53:56.658Z,57.11
2023-05-25T07:56:25.358Z,56.79
2023-05-25T07:58:53.961Z,57.00
2023-05-25T08:01:24.508Z,56.89
2023-05-25T08:03:55.110Z,56.97
2023-05-25T08:06:23.889Z,56.99
2023-05-25T08:08:52.237Z,56.73
2023-05-25T08:11:25.416Z,56.72
2023-05-25T08:13:53.982Z,56.60
2023-05-25T08:16:23.235Z,56.27
2023-05-25T08:18:51.818Z,56.50
2023-05-25T08:21:20.117Z,56.52
2023-05-25T08:23:50.883Z,56.39
2023-05-25T08:28:55.105Z,56.45
2023-05-25T08:31:23.549Z,56.43
2023-05-25T08:33:51.850Z,56.38
2023-05-25T08:36:20.175Z,56.03
2023-05-25T08:38:51.452Z,56.27
2023-05-25T08:41:21.579Z,56.30
2023-05-25T08:43:50.038Z,56.09
2023-05-25T08:46:31.347Z,55.71
2023-05-25T08:49:22.514Z,55.91
2023-05-25T08:51:52.676Z,56.02
2023-05-25T08:54:29.380Z,55.93
2023-05-25T08:57:29.872Z,55.95
2023-05-25T09:00:13.029Z,56.04
2023-05-25T09:03:07.493Z,56.02
2023-05-25T09:05:38.024Z,55.92
2023-05-25T09:08:07.836Z,55.71
2023-05-25T09:10:37.034Z,55.65
2023-05-25T09:13:20.350Z,55.88
2023-05-25T09:15:50.340Z,55.79
2023-05-25T09:18:18.886Z,55.78
2023-05-25T09:20:47.835Z,55.91
2023-05-25T09:23:16.557Z,56.01
2023-05-25T09:25:46.597Z,55.71
2023-05-25T09:28:26.180Z,55.72
2023-05-25T09:30:56.295Z,55.81
2023-05-25T09:33:24.927Z,55.48
2023-05-25T09:35:53.197Z,55.25
2023-05-25T09:38:22.641Z,55.49
2023-05-25T09:40:51.481Z,55.36
2023-05-25T09:43:32.356Z,55.47
2023-05-25T09:46:07.851Z,55.41
2023-05-25T09:48:36.305Z,55.35
2023-05-25T09:51:06.577Z,55.28
2023-05-25T09:53:35.255Z,55.04
2023-05-25T09:56:04.352Z,54.91
2023-05-25T09:58:32.820Z,55.06
2023-05-25T10:01:01.033Z,54.60
2023-05-25T10:03:29.550Z,54.70
2023-05-25T10:06:05.239Z,54.68
2023-05-25T10:08:33.991Z,54.65
2023-05-25T10:11:03.728Z,54.38
2023-05-25T10:13:32.942Z,54.23
2023-05-25T10:16:02.268Z,54.07
2023-05-25T10:18:34.101Z,54.04
2023-05-25T10:21:04.977Z,54.20
2023-05-25T10:23:42.206Z,54.04
2023-05-25T10:26:16.857Z,53.97
2023-05-25T10:28:48.042Z,53.73
2023-05-25T10:31:17.859Z,53.58
2023-05-25T10:33:50.575Z,53.79
2023-05-25T10:36:20.902Z,53.94
2023-05-25T10:38:51.863Z,53.82
2023-05-25T10:41:21.275Z,53.91
2023-05-25T10:43:50.206Z,53.79
2023-05-25T10:46:19.401Z,53.67
2023-05-25T10:48:50.388Z,53.61
2023-05-25T10:51:22.197Z,53.82
2023-05-25T10:54:00.171Z,53.47
2023-05-25T10:56:28.336Z,53.14
2023-05-25T10:58:57.211Z,53.29
2023-05-25T11:01:26.000Z,53.29
2023-05-25T11:03:58.553Z,53.26
2023-05-25T11:06:44.503Z,53.18
2023-05-25T11:09:26.998Z,53.00
2023-05-25T11:11:59.873Z,52.68
2023-05-25T11:14:30.323Z,52.56
2023-05-25T11:17:15.620Z,52.77
2023-05-25T11:19:51.397Z,52.46
2023-05-25T11:22:38.234Z,52.60
2023-05-25T11:25:37.585Z,52.29
2023-05-25T11:28:07.304Z,52.16
2023-05-25T11:30:35.662Z,52.23
2023-05-25T11:33:04.773Z,52.16
2023-05-25T11:35:34.094Z,51.81
2023-05-25T11:38:06.410Z,51.70
2023-05-25T11:40:37.537Z,51.57
2023-05-25T11:43:08.455Z,51.77
2023-05-25T11:45:38.436Z,51.57
2023-05-25T11:48:06.874Z,51.58
2023-05-25T11:50:35.175Z,51.45
2023-05-25T11:53:07.500Z,51.67
2023-05-25T11:55:36.403Z,51.34
2023-05-25T11:58:04.703Z,51.38
2023-05-25T12:00:33.121Z,51.26
2023-05-25T12:03:02.426Z,51.40
2023-05-25T12:05:40.219Z,51.19
2023-05-25T12:08:08.734Z,50.97
2023-05-25T12:10:50.260Z,51.18
2023-05-25T12:13:18.849Z,51.24
2023-05-25T12:15:47.411Z,51.33
2023-05-25T12:18:16.032Z,51.15
2023-05-25T12:20:44.656Z,51.19
2023-05-25T12:23:13.470Z,51.21
2023-05-25T12:25:50.176Z,51.29
2023-05-25T12:28:19.639Z,51.14
2023-05-25T12:30:47.896Z,51.11
2023-05-25T12:33:16.410Z,51.57
2023-05-25T12:35:49.731Z,51.55
2023-05-25T12:38:19.824Z,51.31
2023-05-25T12:40:48.337Z,51.28
2023-05-25T12:43:17.807Z,51.59
2023-05-25T12:45:46.393Z,51.65
2023-05-25T12:48:14.840Z,51.70
2023-05-25T12:50:59.391Z,51.64
2023-05-25T12:53:29.202Z,51.62
2023-05-25T12:56:02.810Z,51.53
2023-05-25T12:58:31.072Z,51.72
2023-05-25T13:00:59.302Z,51.51
2023-05-25T13:03:27.940Z,51.46
2023-05-25T13:06:03.779Z,51.64
2023-05-25T13:08:32.145Z,51.50
2023-05-25T13:11:01.401Z,51.55
2023-05-25T13:13:29.642Z,51.60
2023-05-25T13:15:58.617Z,51.66
2023-05-25T13:18:27.145Z,51.84
2023-05-25T13:20:56.877Z,51.76
2023-05-25T13:23:28.424Z,51.64
2023-05-25T13:25:56.971Z,51.66
2023-05-25T13:28:25.070Z,51.63
2023-05-25T13:30:53.529Z,51.85
2023-05-25T13:33:21.833Z,51.76
2023-05-25T13:35:59.927Z,51.70
2023-05-25T13:38:30.519Z,51.68
2023-05-25T13:40:58.872Z,51.37
2023-05-25T13:43:27.421Z,51.28
2023-05-25T13:45:56.228Z,51.34
2023-05-25T13:48:24.921Z,51.39
2023-05-25T13:51:03.086Z,51.30
2023-05-25T13:53:31.820Z,51.18
2023-05-25T13:56:00.665Z,50.91
2023-05-25T13:58:28.846Z,50.83
2023-05-25T14:00:57.013Z,50.88
2023-05-25T14:03:25.477Z,50.63
2023-05-25T14:05:53.991Z,50.46
2023-05-25T14:08:22.265Z,50.39
2023-05-25T14:10:50.626Z,50.67
2023-05-25T14:13:19.228Z,50.41
2023-05-25T14:15:47.641Z,50.23
2023-05-25T14:18:16.168Z,50.28
2023-05-25T14:20:44.506Z,50.05
2023-05-25T14:23:15.170Z,50.01
2023-05-25T14:25:45.835Z,49.80
2023-05-25T14:28:14.900Z,49.79
2023-05-25T14:30:43.097Z,49.88
2023-05-25T14:33:14.307Z,49.75
2023-05-25T14:35:43.063Z,49.66
2023-05-25T14:38:11.704Z,49.56
2023-05-25T14:40:39.814Z,49.39
2023-05-25T14:43:08.100Z,49.01
2023-05-25T14:45:36.191Z,48.72
2023-05-25T14:48:16.078Z,48.72
2023-05-25T14:50:45.485Z,48.89
2023-05-25T14:53:13.729Z,48.73
2023-05-25T14:55:42.079Z,48.85
2023-05-25T14:58:11.345Z,48.73
2023-05-25T15:00:39.631Z,48.57
2023-05-25T15:03:07.910Z,48.58
2023-05-25T15:05:36.170Z,48.63
2023-05-25T15:08:04.380Z,48.80
2023-05-25T15:10:32.529Z,48.44
2023-05-25T15:13:00.801Z,48.38
2023-05-25T15:15:29.322Z,48.18
2023-05-25T15:17:57.740Z,48.44
2023-05-25T15:20:26.004Z,48.13
2023-05-25T15:22:54.440Z,47.75
2023-05-25T15:25:35.131Z,47.78
2023-05-25T15:28:04.656Z,47.67
2023-05-25T15:30:34.582Z,47.45
2023-05-25T15:33:03.207Z,47.18
2023-05-25T15:35:32.514Z,46.98
2023-05-25T15:38:01.642Z,46.21
2023-05-25T15:40:30.213Z,45.93
2023-05-25T15:42:58.522Z,45.92
2023-05-25T15:45:26.870Z,45.60
2023-05-25T15:47:55.425Z,45.56
2023-05-25T15:50:23.859Z,45.44
2023-05-25T15:52:52.068Z,45.19
2023-05-25T15:55:20.810Z,45.08
2023-05-25T15:57:49.158Z,44.98
2023-05-25T16:00:17.998Z,44.72
2023-05-25T16:02:46.309Z,44.34
2023-05-25T16:05:14.624Z,44.25
2023-05-25T16:07:42.709Z,44.00
2023-05-25T16:10:10.964Z,43.89
2023-05-25T16:12:39.349Z,43.55
2023-05-25T16:15:08.017Z,43.13
2023-05-25T16:17:36.254Z,42.76
2023-05-25T16:20:05.099Z,42.49
2023-05-25T16:22:33.292Z,42.32
2023-05-25T16:25:01.651Z,41.95
2023-05-25T16:27:29.977Z,41.58
2023-05-25T16:29:58.533Z,41.37
2023-05-25T16:32:28.916Z,41.10
2023-05-25T16:34:57.077Z,41.01
2023-05-25T16:37:26.209Z,41.03
2023-05-25T16:39:54.356Z,41.08
2023-05-25T16:42:25.039Z,40.89
2023-05-25T16:44:53.460Z,40.87
2023-05-25T16:47:21.727Z,40.79
2023-05-25T16:49:50.127Z,40.82
2023-05-25T16:52:18.378Z,40.78
2023-05-25T16:54:46.769Z,40.92
2023-05-25T16:57:14.958Z,41.02
2023-05-25T16:59:43.137Z,40.99
2023-05-25T17:02:11.620Z,41.02
2023-05-25T17:04:40.385Z,40.71
2023-05-25T17:07:08.964Z,40.78
2023-05-25T17:09:37.352Z,40.97
2023-05-25T17:12:06.637Z,40.79
2023-05-25T17:14:34.998Z,40.78
2023-05-25T17:17:03.151Z,40.76
2023-05-25T17:19:31.725Z,41.02
2023-05-25T17:22:00.189Z,40.90
2023-05-25T17:24:28.725Z,40.77
2023-05-25T17:26:57.367Z,40.85
2023-05-25T17:29:26.117Z,40.87
2023-05-25T17:31:54.427Z,41.03
2023-05-25T17:34:23.097Z,41.09
2023-05-25T17:36:51.244Z,41.10
2023-05-25T17:39:19.419Z,40.83
2023-05-25T17:41:50.134Z,40.87
2023-05-25T17:44:18.667Z,40.89
2023-05-25T17:46:47.216Z,40.58
2023-05-25T17:49:16.944Z,40.65
2023-05-25T17:51:45.543Z,40.84
2023-05-25T17:54:18.455Z,40.51
2023-05-25T17:56:47.425Z,40.42
2023-05-25T17:59:16.003Z,40.57
2023-05-25T18:01:44.517Z,40.49
2023-05-25T18:04:13.097Z,40.19
2023-05-25T18:06:41.398Z,40.09
2023-05-25T18:09:09.972Z,40.00
2023-05-25T18:11:38.697Z,40.19
2023-05-25T18:14:07.947Z,40.22
2023-05-25T18:16:44.716Z,39.99
2023-05-25T18:19:15.455Z,39.79
2023-05-25T18:21:43.918Z,39.92
2023-05-25T18:24:13.043Z,40.10
2023-05-25T18:26:42.358Z,40.12
2023-05-25T18:29:11.071Z,40.22
2023-05-25T18:31:45.670Z,40.22
2023-05-25T18:34:16.179Z,40.20
2023-05-25T18:36:45.316Z,40.30
2023-05-25T18:39:13.519Z,40.26
2023-05-25T18:41:42.669Z,40.32
2023-05-25T18:44:11.994Z,40.55
2023-05-25T18:46:43.222Z,40.67
2023-05-25T18:49:12.606Z,40.85
2023-05-25T18:51:41.321Z,40.74
2023-05-25T18:54:10.633Z,40.90
2023-05-25T18:56:39.189Z,40.97
2023-05-25T18:59:10.323Z,41.15
2023-05-25T19:01:39.695Z,41.24
2023-05-25T19:04:07.965Z,41.42
2023-05-25T19:06:37.946Z,41.46
2023-05-25T19:09:07.519Z,41.70
2023-05-25T19:11:35.679Z,41.62
2023-05-25T19:14:05.327Z,41.81
2023-05-25T19:16:34.090Z,42.06
2023-05-25T19:19:03.901Z,42.12
2023-05-25T19:21:32.042Z,42.31
2023-05-25T19:24:00.244Z,42.47
2023-05-25T19:26:28.952Z,42.78
2023-05-25T19:28:58.221Z,43.07
2023-05-25T19:31:29.571Z,43.22
2023-05-25T19:34:01.185Z,43.48
2023-05-25T19:36:29.939Z,43.50
2023-05-25T19:38:59.579Z,43.78
2023-05-25T19:41:28.882Z,43.98
2023-05-25T19:43:57.919Z,44.23
2023-05-25T19:46:26.425Z,44.31
2023-05-25T19:48:57.837Z,44.53
2023-05-25T19:51:26.498Z,44.80
2023-05-25T19:53:56.252Z,44.81
2023-05-25T19:56:24.677Z,45.20
2023-05-25T19:58:54.091Z,45.26
2023-05-25T20:01:23.564Z,45.40
2023-05-25T20:03:53.006Z,45.76
2023-05-25T20:06:21.596Z,45.93
2023-05-25T20:08:50.147Z,46.04
2023-05-25T20:11:18.900Z,46.33
2023-05-25T20:13:48.710Z,46.40
2023-05-25T20:16:16.993Z,46.52
2023-05-25T20:18:54.898Z,46.79
2023-05-25T20:21:25.170Z,46.83
2023-05-25T20:23:53.888Z,47.07
2023-05-25T20:26:23.560Z,47.15
2023-05-25T20:28:52.089Z,47.44
2023-05-25T20:31:20.413Z,47.61
2023-05-25T20:33:50.072Z,47.69
2023-05-25T20:36:18.387Z,47.87
2023-05-25T20:38:46.710Z,47.93
2023-05-25T20:41:15.219Z,48.20
2023-05-25T20:43:46.522Z,48.41
2023-05-25T20:46:19.032Z,48.54
2023-05-25T20:48:47.419Z,48.59
2023-05-25T21:05:20.015Z,49.39
2023-05-25T21:07:48.340Z,49.41
2023-05-25T21:10:16.746Z,49.66
2023-05-25T21:12:44.893Z,49.62
2023-05-25T21:15:13.105Z,49.64
2023-05-25T21:17:43.740Z,49.98
2023-05-25T21:20:13.399Z,50.22
2023-05-25T21:22:43.033Z,50.26
2023-05-25T21:25:11.795Z,50.45
2023-05-25T21:27:48.993Z,50.54
2023-05-25T21:30:22.051Z,50.52
2023-05-25T21:32:59.278Z,50.68
2023-05-25T21:35:46.472Z,50.99
2023-05-25T21:38:15.040Z,51.03
2023-05-25T21:40:44.598Z,51.02
2023-05-25T21:43:12.734Z,51.15
2023-05-25T21:45:41.663Z,51.38
2023-05-25T21:48:09.820Z,51.37
2023-05-25T21:50:39.106Z,51.52
2023-05-25T21:53:07.432Z,51.73
2023-05-25T21:55:35.660Z,51.64
2023-05-25T21:58:11.404Z,51.85
2023-05-25T22:00:42.508Z,51.90
2023-05-25T22:03:11.282Z,51.93
2023-05-25T22:05:39.501Z,52.04
2023-05-25T22:08:07.908Z,52.10
2023-05-25T22:10:36.679Z,52.24
2023-05-25T22:13:05.268Z,52.15
2023-05-25T22:15:34.186Z,52.18
2023-05-25T22:18:02.541Z,52.26
2023-05-25T22:20:30.812Z,52.44
2023-05-25T22:22:59.366Z,52.46
2023-05-25T22:25:27.739Z,52.40
2023-05-25T22:27:56.237Z,52.47
2023-05-25T22:30:24.336Z,52.43
2023-05-25T22:32:52.554Z,52.41
2023-05-25T22:35:20.862Z,52.50
2023-05-25T22:37:49.129Z,52.76
2023-05-25T22:40:17.449Z,52.55
2023-05-25T22:42:50.214Z,52.56
2023-05-25T22:45:19.202Z,52.61
2023-05-25T22:47:47.469Z,52.69
2023-05-25T22:50:15.863Z,52.69
2023-05-25T22:52:44.112Z,52.69
2023-05-25T22:55:12.277Z,52.70
2023-05-25T22:57:40.450Z,52.72
2023-05-25T23:00:09.086Z,52.70
2023-05-25T23:02:37.302Z,52.86
2023-05-25T23:05:05.749Z,52.85
2023-05-25T23:07:33.938Z,52.71
2023-05-25T23:10:02.617Z,52.85
2023-05-25T23:12:30.958Z,52.82
2023-05-25T23:15:01.331Z,52.66
2023-05-25T23:17:29.829Z,52.87
2023-05-25T23:19:58.016Z,52.86
2023-05-25T23:22:26.224Z,52.84
2023-05-25T23:24:54.335Z,52.89
2023-05-25T23:27:22.482Z,52.82
2023-05-25T23:29:50.771Z,52.88
2023-05-25T23:32:19.039Z,53.04
2023-05-25T23:34:47.627Z,52.97
2023-05-25T23:37:15.977Z,53.10
2023-05-25T23:39:44.304Z,53.09
2023-05-25T23:42:15.495Z,52.91
2023-05-25T23:44:43.707Z,53.15
2023-05-25T23:47:11.871Z,53.09
2023-05-25T23:49:40.120Z,53.08
2023-05-25T23:52:08.491Z,53.05
2023-05-25T23:54:36.737Z,53.14
2023-05-25T23:57:05.101Z,53.21
2023-05-25T23:59:33.360Z,53.22
